Globe Explorer — 3EIQ7 — position and weather

sailwx.info

Track history (hours):
 
Tides and Currents Weather Stations Pressure Air Temp Water Temp Dewpoint Dewpoint Depression Visibility Wind Speed Wind Dir Waves Ship Positions

Globe Explorer

Last reported at 2017-Sep-20 22:27 UTC. Time now 2017-Sep-22 10:07 UTC.
Position N 35°36' E 140°05'.

Length 169 m; draft 7.9 m.

Type: Cargo ship. MMSI: 357400000.

Date/timePositionNaut miles runAvg speedWind from/ knotsBaromVisibWave heightAir tempDewpointWater temp
2017-Sep-20 22:27N 35°36' E 140°05'3 5.8
2017-Sep-20 21:59N 35°35' E 140°03'3 5.4
2017-Sep-20 21:30N 35°34' E 139°59'1 1.3
2017-Sep-20 21:01N 35°35' E 139°60'0 0.0
2017-Sep-20 20:31N 35°35' E 139°60'0 0.0
2017-Sep-20 20:01N 35°35' E 139°60'0 0.0
2017-Sep-20 19:31N 35°35' E 139°60'0 0.1
2017-Sep-20 19:01N 35°35' E 139°60'0 0.0
2017-Sep-20 18:31N 35°35' E 139°60'0 0.0
2017-Sep-20 18:01N 35°35' E 139°60'0 0.0
2017-Sep-20 17:30N 35°35' E 139°60'0 0.1
2017-Sep-20 17:01N 35°35' E 140°00'0 0.0
2017-Sep-20 16:24N 35°35' E 140°00'0 0.0
2017-Sep-20 16:00N 35°35' E 140°00'0 0.0
2017-Sep-20 15:31N 35°35' E 140°00'0 0.0
2017-Sep-20 14:53N 35°35' E 140°00'0 0.0
2017-Sep-20 12:45N 35°35' E 140°00'0 0.0
2017-Sep-20 12:28N 35°35' E 140°00'0 0.0
2017-Sep-20 12:00N 35°35' E 140°00'0 0.0
2017-Sep-20 11:30N 35°35' E 140°00'0 0.0
2017-Sep-20 10:56N 35°35' E 140°00'0 0.0
2017-Sep-20 10:29N 35°35' E 140°00'0 0.1
2017-Sep-20 09:31N 35°35' E 139°60'0 0.0
2017-Sep-20 09:27N 35°35' E 139°60'0 0.0
2017-Sep-20 08:59N 35°35' E 139°60'0 0.0
2017-Sep-20 08:30N 35°35' E 139°60'0 0.0
2017-Sep-20 08:00N 35°35' E 139°60'0 0.0
2017-Sep-20 07:31N 35°35' E 139°60'0 0.0
2017-Sep-20 07:01N 35°35' E 139°60'0 0.0
2017-Sep-20 06:30N 35°35' E 139°60'0 0.0
2017-Sep-20 06:00N 35°35' E 139°60'0 0.0
2017-Sep-20 05:30N 35°35' E 139°60'0 0.0
2017-Sep-20 05:01N 35°35' E 139°60'0 0.0
2017-Sep-20 04:30N 35°35' E 139°60'0 0.0
2017-Sep-20 03:48N 35°35' E 139°60'0 0.2
2017-Sep-20 03:30N 35°35' E 140°00'0 0.1
2017-Sep-20 02:59N 35°35' E 140°00'0 0.1
2017-Sep-20 02:31N 35°35' E 139°60'0 0.0
2017-Sep-20 02:00N 35°35' E 139°60'0 0.1
2017-Sep-20 01:30N 35°35' E 139°60'0 0.1
2017-Sep-20 01:00N 35°35' E 139°60'0 0.0
2017-Sep-20 00:31N 35°35' E 139°60'0 0.0
2017-Sep-20 00:00N 35°35' E 139°60'0 0.0
2017-Sep-19 23:28N 35°35' E 139°60'0 0.1
2017-Sep-19 23:00N 35°35' E 139°60'0 0.0
2017-Sep-19 22:30N 35°35' E 139°60'0 0.0
2017-Sep-19 21:57N 35°35' E 139°60'0 0.0
2017-Sep-19 21:23N 35°35' E 139°60'0 0.0
2017-Sep-19 20:59N 35°35' E 139°60'0 0.0
2017-Sep-19 20:30N 35°35' E 139°60'0 0.1
2017-Sep-19 19:59N 35°35' E 139°60'0 0.0
2017-Sep-19 19:30N 35°35' E 139°60'0 0.0
2017-Sep-19 18:59N 35°35' E 139°60'0 0.0
2017-Sep-19 18:31N 35°35' E 139°60'0 0.0
2017-Sep-19 17:58N 35°35' E 139°60'0 0.0
2017-Sep-19 17:26N 35°35' E 139°60'0 0.1
2017-Sep-19 16:59N 35°35' E 140°00'0 0.0
2017-Sep-19 16:30N 35°35' E 140°00'0 0.0
2017-Sep-19 16:01N 35°35' E 140°00'0 0.0
2017-Sep-19 15:31N 35°35' E 140°00'0 0.0
2017-Sep-19 14:51N 35°35' E 140°00'0 0.0
2017-Sep-19 14:31N 35°35' E 140°00'0 0.1
2017-Sep-19 14:00N 35°35' E 139°60'0 0.0
2017-Sep-19 13:30N 35°35' E 139°60'0 0.0
2017-Sep-19 12:56N 35°35' E 139°60'0 0.1
2017-Sep-19 12:31N 35°35' E 140°00'0 0.0
2017-Sep-19 12:01N 35°35' E 140°00'0 0.1
2017-Sep-19 11:28N 35°35' E 139°60'0 0.0
2017-Sep-19 11:00N 35°35' E 139°60'0 0.0
2017-Sep-19 10:30N 35°35' E 139°60'0 0.1
2017-Sep-19 10:01N 35°35' E 140°00'0 0.1
2017-Sep-19 09:31N 35°35' E 139°60'0 0.0
2017-Sep-19 09:00N 35°35' E 139°60'0 0.0
2017-Sep-19 08:30N 35°35' E 139°60'0 0.0
2017-Sep-19 08:00N 35°35' E 139°60'0 0.0
2017-Sep-19 07:30N 35°35' E 139°60'0 0.0
2017-Sep-19 07:00N 35°35' E 139°60'0 0.0
2017-Sep-19 06:29N 35°35' E 139°60'0 0.1
2017-Sep-19 06:00N 35°35' E 140°00'0 0.1
2017-Sep-19 05:30N 35°35' E 139°60'0 0.0
2017-Sep-19 05:00N 35°35' E 139°60'0 0.0
2017-Sep-19 04:31N 35°35' E 139°60'0 0.0
2017-Sep-19 03:59N 35°35' E 139°60'0 0.0
2017-Sep-19 03:25N 35°35' E 139°60'0 0.0
2017-Sep-19 02:59N 35°35' E 139°60'0 0.0
2017-Sep-19 02:29N 35°35' E 139°60'0 0.0
2017-Sep-19 01:55N 35°35' E 139°60'0 0.0
2017-Sep-19 01:29N 35°35' E 139°60'0 0.1
2017-Sep-19 00:57N 35°35' E 139°60'0 0.0
2017-Sep-19 00:31N 35°35' E 139°60'0 0.0
2017-Sep-18 23:59N 35°35' E 139°60'0 0.0
2017-Sep-18 23:31N 35°35' E 139°60'0 0.0
2017-Sep-18 23:00N 35°35' E 139°60'0 0.0
2017-Sep-18 22:31N 35°35' E 139°60'0 0.0
2017-Sep-18 22:01N 35°35' E 139°60'0 0.0
2017-Sep-18 21:30N 35°35' E 139°60'0 0.0
2017-Sep-18 21:01N 35°35' E 139°60'0 0.1
2017-Sep-18 20:31N 35°35' E 139°60'0 0.1
2017-Sep-18 20:00N 35°35' E 139°60'0 0.0
2017-Sep-18 19:30N 35°35' E 139°60'0 0.0
2017-Sep-18 19:00N 35°35' E 139°60'0 0.0
2017-Sep-18 18:30N 35°35' E 139°60'0 0.1
2017-Sep-18 18:00N 35°35' E 139°60'0 0.1
2017-Sep-18 17:30N 35°35' E 139°60'0 0.0
2017-Sep-18 17:00N 35°35' E 139°60'0 0.0
2017-Sep-18 16:30N 35°35' E 139°60'0 0.1
2017-Sep-18 16:00N 35°35' E 139°60'0 0.0
2017-Sep-18 15:30N 35°35' E 139°60'0 0.0
2017-Sep-18 15:00N 35°35' E 139°60'0 0.0
2017-Sep-18 14:30N 35°35' E 139°60'0 0.0
2017-Sep-18 14:00N 35°35' E 139°60'0 0.0
2017-Sep-18 13:30N 35°35' E 139°60'0 0.0
2017-Sep-18 13:00N 35°35' E 139°60'0 0.0
2017-Sep-18 12:30N 35°35' E 139°60'0 0.0
2017-Sep-18 12:00N 35°35' E 139°60'0 0.0
2017-Sep-18 11:30N 35°35' E 139°60'0 0.0
2017-Sep-18 11:00N 35°35' E 139°60'0 0.1
2017-Sep-18 10:30N 35°35' E 139°60'0 0.0
2017-Sep-18 10:00N 35°35' E 139°60'0 0.0
2017-Sep-18 09:30N 35°35' E 139°60'0 0.1
2017-Sep-18 09:00N 35°35' E 139°60'0 0.1
2017-Sep-18 08:28N 35°35' E 139°60'0 0.1
2017-Sep-18 07:57N 35°35' E 139°60'0 0.1
2017-Sep-18 07:30N 35°35' E 139°60'0 0.1
2017-Sep-18 07:00N 35°35' E 140°00'0 0.1
2017-Sep-18 06:30N 35°35' E 140°00'0 0.0
2017-Sep-18 06:00N 35°35' E 140°00'0 0.1
2017-Sep-18 05:30N 35°35' E 139°60'0 0.0
2017-Sep-18 05:00N 35°35' E 139°60'0 0.0
2017-Sep-18 04:30N 35°35' E 139°60'0 0.0
2017-Sep-18 04:00N 35°35' E 139°60'0 0.0
2017-Sep-18 03:30N 35°35' E 139°60'0 0.0
2017-Sep-18 03:00N 35°35' E 139°60'0 0.0
2017-Sep-18 02:29N 35°35' E 139°60'0 0.0
2017-Sep-18 02:00N 35°35' E 139°60'0 0.0
2017-Sep-18 01:24N 35°35' E 139°60'0 0.0
2017-Sep-18 01:00N 35°35' E 139°60'0 0.0
2017-Sep-18 00:31N 35°35' E 139°60'0 0.0
2017-Sep-17 23:57N 35°35' E 139°60'0 0.0
2017-Sep-17 23:24N 35°35' E 139°60'0 0.0
2017-Sep-17 22:47N 35°35' E 139°60'0 0.0
2017-Sep-17 22:29N 35°35' E 139°60'0 0.0
2017-Sep-17 21:58N 35°35' E 139°60'0 0.0
2017-Sep-17 21:30N 35°35' E 139°60'0 0.0
2017-Sep-17 21:00N 35°35' E 139°60'0 0.0
2017-Sep-17 20:30N 35°35' E 139°60'0 0.2
2017-Sep-17 19:59N 35°35' E 139°60'0 0.2
2017-Sep-17 19:28N 35°35' E 139°60'0 0.3
2017-Sep-17 18:56N 35°35' E 139°60'0 0.1
2017-Sep-17 18:29N 35°35' E 139°60'0 0.0
2017-Sep-17 18:00N 35°35' E 139°60'0 0.2
2017-Sep-17 17:30N 35°34' E 139°60'0 0.1
2017-Sep-17 17:00N 35°34' E 139°60'0 0.1
2017-Sep-17 16:30N 35°34' E 139°60'0 0.0
2017-Sep-17 16:00N 35°34' E 139°60'0 0.2
2017-Sep-17 15:30N 35°34' E 139°60'0 0.2
2017-Sep-17 14:53N 35°34' E 139°60'0 0.0
2017-Sep-17 14:30N 35°34' E 139°60'0 0.0
2017-Sep-17 13:58N 35°34' E 139°60'0 0.0
2017-Sep-17 13:30N 35°34' E 139°60'0 0.0
2017-Sep-17 13:00N 35°34' E 139°60'0 0.0
2017-Sep-17 12:15N 35°34' E 139°60'0 0.1
2017-Sep-17 12:00N 35°34' E 139°60'0 0.1
2017-Sep-17 11:30N 35°34' E 139°60'0 0.1
2017-Sep-17 10:42N 35°34' E 139°60'0 0.0
2017-Sep-17 10:22N 35°34' E 139°60'0 0.0
2017-Sep-17 09:56N 35°34' E 139°60'0 0.0
2017-Sep-17 09:28N 35°34' E 139°60'0 0.1
2017-Sep-17 08:57N 35°34' E 139°60'0 0.0
2017-Sep-17 08:30N 35°34' E 139°60'0 0.0
2017-Sep-17 08:00N 35°34' E 139°60'0 0.0
2017-Sep-17 07:30N 35°34' E 139°60'0 0.1
2017-Sep-17 07:00N 35°34' E 139°60'0 0.0
2017-Sep-17 06:30N 35°34' E 139°60'0 0.0
2017-Sep-17 06:00N 35°34' E 139°60'0 0.0
2017-Sep-17 05:26N 35°34' E 139°60'0 0.0
2017-Sep-17 05:00N 35°34' E 139°60'0 0.0
2017-Sep-17 03:12N 35°34' E 139°60'0 0.5
2017-Sep-17 02:55N 35°34' E 139°60'1 2.8
2017-Sep-17 02:30N 35°34' E 139°58'5 9.5
2017-Sep-17 02:00N 35°30' E 139°54'510.8
2017-Sep-17 01:30N 35°27' E 139°49'611.6
2017-Sep-17 01:00N 35°22' E 139°45'510.6
2017-Sep-17 00:30N 35°17' E 139°46'510.8
2017-Sep-17 00:00N 35°11' E 139°47'4 7.3
2017-Sep-16 23:30N 35°08' E 139°46'3 5.0
2017-Sep-16 23:00N 35°05' E 139°46'3 6.3
2017-Sep-16 22:30N 35°03' E 139°44'2 3.5
2017-Sep-16 22:00N 35°01' E 139°42'2 4.1
2017-Sep-16 21:30N 34°59' E 139°41'3 5.5
2017-Sep-16 21:00N 34°57' E 139°41'4 7.8
2017-Sep-16 20:30N 34°53' E 139°41'4 6.8
2017-Sep-16 19:59N 34°49' E 139°41'2 4.9
2017-Sep-16 19:30N 34°47' E 139°43'  
Track history (hours):
 
Tides and Currents Weather Stations Pressure Air Temp Water Temp Dewpoint Dewpoint Depression Visibility Wind Speed Wind Dir Waves Ship Positions

Globe Explorer

Last reported at 2017-Sep-20 22:27 UTC. Time now 2017-Sep-22 10:07 UTC.
Position N 35°36' E 140°05'.

Length 169 m; draft 7.9 m.

Type: Cargo ship. MMSI: 357400000.

Date/timePositionNaut miles runAvg speedWind from/ knotsBaromVisibWave heightAir tempDewpointWater temp
2017-Sep-20 22:27N 35°36' E 140°05'3 5.8
2017-Sep-20 21:59N 35°35' E 140°03'3 5.4
2017-Sep-20 21:30N 35°34' E 139°59'1 1.3
2017-Sep-20 21:01N 35°35' E 139°60'0 0.0
2017-Sep-20 20:31N 35°35' E 139°60'0 0.0
2017-Sep-20 20:01N 35°35' E 139°60'0 0.0
2017-Sep-20 19:31N 35°35' E 139°60'0 0.1
2017-Sep-20 19:01N 35°35' E 139°60'0 0.0
2017-Sep-20 18:31N 35°35' E 139°60'0 0.0
2017-Sep-20 18:01N 35°35' E 139°60'0 0.0
2017-Sep-20 17:30N 35°35' E 139°60'0 0.1
2017-Sep-20 17:01N 35°35' E 140°00'0 0.0
2017-Sep-20 16:24N 35°35' E 140°00'0 0.0
2017-Sep-20 16:00N 35°35' E 140°00'0 0.0
2017-Sep-20 15:31N 35°35' E 140°00'0 0.0
2017-Sep-20 14:53N 35°35' E 140°00'0 0.0
2017-Sep-20 12:45N 35°35' E 140°00'0 0.0
2017-Sep-20 12:28N 35°35' E 140°00'0 0.0
2017-Sep-20 12:00N 35°35' E 140°00'0 0.0
2017-Sep-20 11:30N 35°35' E 140°00'0 0.0
2017-Sep-20 10:56N 35°35' E 140°00'0 0.0
2017-Sep-20 10:29N 35°35' E 140°00'0 0.1
2017-Sep-20 09:31N 35°35' E 139°60'0 0.0
2017-Sep-20 09:27N 35°35' E 139°60'0 0.0
2017-Sep-20 08:59N 35°35' E 139°60'0 0.0
2017-Sep-20 08:30N 35°35' E 139°60'0 0.0
2017-Sep-20 08:00N 35°35' E 139°60'0 0.0
2017-Sep-20 07:31N 35°35' E 139°60'0 0.0
2017-Sep-20 07:01N 35°35' E 139°60'0 0.0
2017-Sep-20 06:30N 35°35' E 139°60'0 0.0
2017-Sep-20 06:00N 35°35' E 139°60'0 0.0
2017-Sep-20 05:30N 35°35' E 139°60'0 0.0
2017-Sep-20 05:01N 35°35' E 139°60'0 0.0
2017-Sep-20 04:30N 35°35' E 139°60'0 0.0
2017-Sep-20 03:48N 35°35' E 139°60'0 0.2
2017-Sep-20 03:30N 35°35' E 140°00'0 0.1
2017-Sep-20 02:59N 35°35' E 140°00'0 0.1
2017-Sep-20 02:31N 35°35' E 139°60'0 0.0
2017-Sep-20 02:00N 35°35' E 139°60'0 0.1
2017-Sep-20 01:30N 35°35' E 139°60'0 0.1
2017-Sep-20 01:00N 35°35' E 139°60'0 0.0
2017-Sep-20 00:31N 35°35' E 139°60'0 0.0
2017-Sep-20 00:00N 35°35' E 139°60'0 0.0
2017-Sep-19 23:28N 35°35' E 139°60'0 0.1
2017-Sep-19 23:00N 35°35' E 139°60'0 0.0
2017-Sep-19 22:30N 35°35' E 139°60'0 0.0
2017-Sep-19 21:57N 35°35' E 139°60'0 0.0
2017-Sep-19 21:23N 35°35' E 139°60'0 0.0
2017-Sep-19 20:59N 35°35' E 139°60'0 0.0
2017-Sep-19 20:30N 35°35' E 139°60'0 0.1
2017-Sep-19 19:59N 35°35' E 139°60'0 0.0
2017-Sep-19 19:30N 35°35' E 139°60'0 0.0
2017-Sep-19 18:59N 35°35' E 139°60'0 0.0
2017-Sep-19 18:31N 35°35' E 139°60'0 0.0
2017-Sep-19 17:58N 35°35' E 139°60'0 0.0
2017-Sep-19 17:26N 35°35' E 139°60'0 0.1
2017-Sep-19 16:59N 35°35' E 140°00'0 0.0
2017-Sep-19 16:30N 35°35' E 140°00'0 0.0
2017-Sep-19 16:01N 35°35' E 140°00'0 0.0
2017-Sep-19 15:31N 35°35' E 140°00'0 0.0
2017-Sep-19 14:51N 35°35' E 140°00'0 0.0
2017-Sep-19 14:31N 35°35' E 140°00'0 0.1
2017-Sep-19 14:00N 35°35' E 139°60'0 0.0
2017-Sep-19 13:30N 35°35' E 139°60'0 0.0
2017-Sep-19 12:56N 35°35' E 139°60'0 0.1
2017-Sep-19 12:31N 35°35' E 140°00'0 0.0
2017-Sep-19 12:01N 35°35' E 140°00'0 0.1
2017-Sep-19 11:28N 35°35' E 139°60'0 0.0
2017-Sep-19 11:00N 35°35' E 139°60'0 0.0
2017-Sep-19 10:30N 35°35' E 139°60'0 0.1
2017-Sep-19 10:01N 35°35' E 140°00'0 0.1
2017-Sep-19 09:31N 35°35' E 139°60'0 0.0
2017-Sep-19 09:00N 35°35' E 139°60'0 0.0
2017-Sep-19 08:30N 35°35' E 139°60'0 0.0
2017-Sep-19 08:00N 35°35' E 139°60'0 0.0
2017-Sep-19 07:30N 35°35' E 139°60'0 0.0
2017-Sep-19 07:00N 35°35' E 139°60'0 0.0
2017-Sep-19 06:29N 35°35' E 139°60'0 0.1
2017-Sep-19 06:00N 35°35' E 140°00'0 0.1
2017-Sep-19 05:30N 35°35' E 139°60'0 0.0
2017-Sep-19 05:00N 35°35' E 139°60'0 0.0
2017-Sep-19 04:31N 35°35' E 139°60'0 0.0
2017-Sep-19 03:59N 35°35' E 139°60'0 0.0
2017-Sep-19 03:25N 35°35' E 139°60'0 0.0
2017-Sep-19 02:59N 35°35' E 139°60'0 0.0
2017-Sep-19 02:29N 35°35' E 139°60'0 0.0
2017-Sep-19 01:55N 35°35' E 139°60'0 0.0
2017-Sep-19 01:29N 35°35' E 139°60'0 0.1
2017-Sep-19 00:57N 35°35' E 139°60'0 0.0
2017-Sep-19 00:31N 35°35' E 139°60'0 0.0
2017-Sep-18 23:59N 35°35' E 139°60'0 0.0
2017-Sep-18 23:31N 35°35' E 139°60'0 0.0
2017-Sep-18 23:00N 35°35' E 139°60'0 0.0
2017-Sep-18 22:31N 35°35' E 139°60'0 0.0
2017-Sep-18 22:01N 35°35' E 139°60'0 0.0
2017-Sep-18 21:30N 35°35' E 139°60'0 0.0
2017-Sep-18 21:01N 35°35' E 139°60'0 0.1
2017-Sep-18 20:31N 35°35' E 139°60'0 0.1
2017-Sep-18 20:00N 35°35' E 139°60'0 0.0
2017-Sep-18 19:30N 35°35' E 139°60'0 0.0
2017-Sep-18 19:00N 35°35' E 139°60'0 0.0
2017-Sep-18 18:30N 35°35' E 139°60'0 0.1
2017-Sep-18 18:00N 35°35' E 139°60'0 0.1
2017-Sep-18 17:30N 35°35' E 139°60'0 0.0
2017-Sep-18 17:00N 35°35' E 139°60'0 0.0
2017-Sep-18 16:30N 35°35' E 139°60'0 0.1
2017-Sep-18 16:00N 35°35' E 139°60'0 0.0
2017-Sep-18 15:30N 35°35' E 139°60'0 0.0
2017-Sep-18 15:00N 35°35' E 139°60'0 0.0
2017-Sep-18 14:30N 35°35' E 139°60'0 0.0
2017-Sep-18 14:00N 35°35' E 139°60'0 0.0
2017-Sep-18 13:30N 35°35' E 139°60'0 0.0
2017-Sep-18 13:00N 35°35' E 139°60'0 0.0
2017-Sep-18 12:30N 35°35' E 139°60'0 0.0
2017-Sep-18 12:00N 35°35' E 139°60'0 0.0
2017-Sep-18 11:30N 35°35' E 139°60'0 0.0
2017-Sep-18 11:00N 35°35' E 139°60'0 0.1
2017-Sep-18 10:30N 35°35' E 139°60'0 0.0
2017-Sep-18 10:00N 35°35' E 139°60'0 0.0
2017-Sep-18 09:30N 35°35' E 139°60'0 0.1
2017-Sep-18 09:00N 35°35' E 139°60'0 0.1
2017-Sep-18 08:28N 35°35' E 139°60'0 0.1
2017-Sep-18 07:57N 35°35' E 139°60'0 0.1
2017-Sep-18 07:30N 35°35' E 139°60'0 0.1
2017-Sep-18 07:00N 35°35' E 140°00'0 0.1
2017-Sep-18 06:30N 35°35' E 140°00'0 0.0
2017-Sep-18 06:00N 35°35' E 140°00'0 0.1
2017-Sep-18 05:30N 35°35' E 139°60'0 0.0
2017-Sep-18 05:00N 35°35' E 139°60'0 0.0
2017-Sep-18 04:30N 35°35' E 139°60'0 0.0
2017-Sep-18 04:00N 35°35' E 139°60'0 0.0
2017-Sep-18 03:30N 35°35' E 139°60'0 0.0
2017-Sep-18 03:00N 35°35' E 139°60'0 0.0
2017-Sep-18 02:29N 35°35' E 139°60'0 0.0
2017-Sep-18 02:00N 35°35' E 139°60'0 0.0
2017-Sep-18 01:24N 35°35' E 139°60'0 0.0
2017-Sep-18 01:00N 35°35' E 139°60'0 0.0
2017-Sep-18 00:31N 35°35' E 139°60'0 0.0
2017-Sep-17 23:57N 35°35' E 139°60'0 0.0
2017-Sep-17 23:24N 35°35' E 139°60'0 0.0
2017-Sep-17 22:47N 35°35' E 139°60'0 0.0
2017-Sep-17 22:29N 35°35' E 139°60'0 0.0
2017-Sep-17 21:58N 35°35' E 139°60'0 0.0
2017-Sep-17 21:30N 35°35' E 139°60'0 0.0
2017-Sep-17 21:00N 35°35' E 139°60'0 0.0
2017-Sep-17 20:30N 35°35' E 139°60'0 0.2
2017-Sep-17 19:59N 35°35' E 139°60'0 0.2
2017-Sep-17 19:28N 35°35' E 139°60'0 0.3
2017-Sep-17 18:56N 35°35' E 139°60'0 0.1
2017-Sep-17 18:29N 35°35' E 139°60'0 0.0
2017-Sep-17 18:00N 35°35' E 139°60'0 0.2
2017-Sep-17 17:30N 35°34' E 139°60'0 0.1
2017-Sep-17 17:00N 35°34' E 139°60'0 0.1
2017-Sep-17 16:30N 35°34' E 139°60'0 0.0
2017-Sep-17 16:00N 35°34' E 139°60'0 0.2
2017-Sep-17 15:30N 35°34' E 139°60'0 0.2
2017-Sep-17 14:53N 35°34' E 139°60'0 0.0
2017-Sep-17 14:30N 35°34' E 139°60'0 0.0
2017-Sep-17 13:58N 35°34' E 139°60'0 0.0
2017-Sep-17 13:30N 35°34' E 139°60'0 0.0
2017-Sep-17 13:00N 35°34' E 139°60'0 0.0
2017-Sep-17 12:15N 35°34' E 139°60'0 0.1
2017-Sep-17 12:00N 35°34' E 139°60'0 0.1
2017-Sep-17 11:30N 35°34' E 139°60'0 0.1
2017-Sep-17 10:42N 35°34' E 139°60'0 0.0
2017-Sep-17 10:22N 35°34' E 139°60'0 0.0
2017-Sep-17 09:56N 35°34' E 139°60'0 0.0
2017-Sep-17 09:28N 35°34' E 139°60'0 0.1
2017-Sep-17 08:57N 35°34' E 139°60'0 0.0
2017-Sep-17 08:30N 35°34' E 139°60'0 0.0
2017-Sep-17 08:00N 35°34' E 139°60'0 0.0
2017-Sep-17 07:30N 35°34' E 139°60'0 0.1
2017-Sep-17 07:00N 35°34' E 139°60'0 0.0
2017-Sep-17 06:30N 35°34' E 139°60'0 0.0
2017-Sep-17 06:00N 35°34' E 139°60'0 0.0
2017-Sep-17 05:26N 35°34' E 139°60'0 0.0
2017-Sep-17 05:00N 35°34' E 139°60'0 0.0
2017-Sep-17 03:12N 35°34' E 139°60'0 0.5
2017-Sep-17 02:55N 35°34' E 139°60'1 2.8
2017-Sep-17 02:30N 35°34' E 139°58'5 9.5
2017-Sep-17 02:00N 35°30' E 139°54'510.8
2017-Sep-17 01:30N 35°27' E 139°49'611.6
2017-Sep-17 01:00N 35°22' E 139°45'510.6
2017-Sep-17 00:30N 35°17' E 139°46'510.8
2017-Sep-17 00:00N 35°11' E 139°47'4 7.3
2017-Sep-16 23:30N 35°08' E 139°46'3 5.0
2017-Sep-16 23:00N 35°05' E 139°46'3 6.3
2017-Sep-16 22:30N 35°03' E 139°44'2 3.5
2017-Sep-16 22:00N 35°01' E 139°42'2 4.1
2017-Sep-16 21:30N 34°59' E 139°41'3 5.5
2017-Sep-16 21:00N 34°57' E 139°41'4 7.8
2017-Sep-16 20:30N 34°53' E 139°41'4 6.8
2017-Sep-16 19:59N 34°49' E 139°41'2 4.9
2017-Sep-16 19:30N 34°47' E 139°43'  

Dump ship's entire track history